sensor_id;sensor_type;location;lat;lon;timestamp;P1;durP1;ratioP1;P2;durP2;ratioP2
68947;SDS011;55996;49.546;7.400;2022-12-11T00:01:21;19.77;;;12.93;;
68947;SDS011;55996;49.546;7.400;2022-12-11T00:03:47;20.80;;;13.90;;
68947;SDS011;55996;49.546;7.400;2022-12-11T00:06:13;22.40;;;14.63;;
68947;SDS011;55996;49.546;7.400;2022-12-11T00:08:40;23.40;;;15.47;;
68947;SDS011;55996;49.546;7.400;2022-12-11T00:11:13;21.93;;;15.43;;
68947;SDS011;55996;49.546;7.400;2022-12-11T00:13:40;20.73;;;14.60;;
68947;SDS011;55996;49.546;7.400;2022-12-11T00:16:06;19.93;;;13.53;;
68947;SDS011;55996;49.546;7.400;2022-12-11T00:18:32;21.47;;;14.43;;
68947;SDS011;55996;49.546;7.400;2022-12-11T00:20:59;23.03;;;13.67;;
68947;SDS011;55996;49.546;7.400;2022-12-11T00:23:25;19.90;;;14.17;;
68947;SDS011;55996;49.546;7.400;2022-12-11T00:25:51;20.20;;;14.77;;
68947;SDS011;55996;49.546;7.400;2022-12-11T00:28:17;20.40;;;13.97;;
68947;SDS011;55996;49.546;7.400;2022-12-11T00:30:45;22.73;;;14.17;;
68947;SDS011;55996;49.546;7.400;2022-12-11T00:33:11;22.23;;;14.27;;
68947;SDS011;55996;49.546;7.400;2022-12-11T00:35:38;20.30;;;13.90;;
68947;SDS011;55996;49.546;7.400;2022-12-11T00:38:05;22.40;;;14.33;;
68947;SDS011;55996;49.546;7.400;2022-12-11T00:40:34;21.30;;;13.47;;
68947;SDS011;55996;49.546;7.400;2022-12-11T00:43:00;21.40;;;14.70;;
68947;SDS011;55996;49.546;7.400;2022-12-11T00:45:26;23.07;;;14.03;;
68947;SDS011;55996;49.546;7.400;2022-12-11T00:47:52;20.87;;;14.43;;
68947;SDS011;55996;49.546;7.400;2022-12-11T00:50:17;21.53;;;14.17;;
68947;SDS011;55996;49.546;7.400;2022-12-11T00:52:42;19.60;;;13.47;;
68947;SDS011;55996;49.546;7.400;2022-12-11T00:55:08;21.57;;;13.93;;
68947;SDS011;55996;49.546;7.400;2022-12-11T00:57:33;21.93;;;14.60;;
68947;SDS011;55996;49.546;7.400;2022-12-11T00:59:59;21.33;;;13.90;;
68947;SDS011;55996;49.546;7.400;2022-12-11T01:02:24;19.67;;;13.77;;
68947;SDS011;55996;49.546;7.400;2022-12-11T01:04:51;19.70;;;14.00;;
68947;SDS011;55996;49.546;7.400;2022-12-11T01:07:16;21.77;;;14.03;;
68947;SDS011;55996;49.546;7.400;2022-12-11T01:09:42;20.53;;;14.37;;
68947;SDS011;55996;49.546;7.400;2022-12-11T01:12:25;18.97;;;13.77;;
68947;SDS011;55996;49.546;7.400;2022-12-11T01:14:52;19.93;;;13.80;;
68947;SDS011;55996;49.546;7.400;2022-12-11T01:17:18;20.87;;;13.87;;
68947;SDS011;55996;49.546;7.400;2022-12-11T01:19:43;21.17;;;14.33;;
68947;SDS011;55996;49.546;7.400;2022-12-11T01:22:09;21.50;;;14.37;;
68947;SDS011;55996;49.546;7.400;2022-12-11T01:24:34;20.87;;;14.57;;
68947;SDS011;55996;49.546;7.400;2022-12-11T01:27:00;19.73;;;14.00;;
68947;SDS011;55996;49.546;7.400;2022-12-11T01:29:25;18.90;;;13.63;;
68947;SDS011;55996;49.546;7.400;2022-12-11T01:31:50;22.07;;;14.50;;
68947;SDS011;55996;49.546;7.400;2022-12-11T01:34:16;21.10;;;14.77;;
68947;SDS011;55996;49.546;7.400;2022-12-11T01:36:41;19.87;;;13.03;;
68947;SDS011;55996;49.546;7.400;2022-12-11T01:39:07;18.63;;;13.00;;
68947;SDS011;55996;49.546;7.400;2022-12-11T01:41:32;20.90;;;13.23;;
68947;SDS011;55996;49.546;7.400;2022-12-11T01:43:58;18.40;;;13.77;;
68947;SDS011;55996;49.546;7.400;2022-12-11T01:46:28;19.63;;;13.13;;
68947;SDS011;55996;49.546;7.400;2022-12-11T01:48:54;20.43;;;14.33;;
68947;SDS011;55996;49.546;7.400;2022-12-11T01:51:21;20.47;;;13.97;;
68947;SDS011;55996;49.546;7.400;2022-12-11T01:53:50;19.07;;;14.30;;
68947;SDS011;55996;49.546;7.400;2022-12-11T01:56:20;19.40;;;13.63;;
68947;SDS011;55996;49.546;7.400;2022-12-11T01:58:48;19.60;;;13.80;;
68947;SDS011;55996;49.546;7.400;2022-12-11T02:01:20;20.20;;;13.70;;
68947;SDS011;55996;49.546;7.400;2022-12-11T02:03:51;19.47;;;12.97;;
68947;SDS011;55996;49.546;7.400;2022-12-11T02:09:05;17.47;;;12.67;;
68947;SDS011;55996;49.546;7.400;2022-12-11T02:11:37;18.57;;;12.63;;
68947;SDS011;55996;49.546;7.400;2022-12-11T02:14:25;18.20;;;12.60;;
68947;SDS011;55996;49.546;7.400;2022-12-11T02:16:59;17.57;;;12.87;;
68947;SDS011;55996;49.546;7.400;2022-12-11T02:22:10;19.57;;;13.53;;
68947;SDS011;55996;49.546;7.400;2022-12-11T02:24:46;16.50;;;12.70;;
68947;SDS011;55996;49.546;7.400;2022-12-11T02:29:51;19.00;;;13.37;;
68947;SDS011;55996;49.546;7.400;2022-12-11T02:32:26;17.67;;;13.00;;
68947;SDS011;55996;49.546;7.400;2022-12-11T02:35:14;20.67;;;13.67;;
68947;SDS011;55996;49.546;7.400;2022-12-11T02:37:41;21.60;;;14.17;;
68947;SDS011;55996;49.546;7.400;2022-12-11T02:40:10;22.43;;;14.53;;
68947;SDS011;55996;49.546;7.400;2022-12-11T02:42:39;19.93;;;14.50;;
68947;SDS011;55996;49.546;7.400;2022-12-11T02:45:07;17.40;;;13.37;;
68947;SDS011;55996;49.546;7.400;2022-12-11T02:47:35;23.00;;;15.10;;
68947;SDS011;55996;49.546;7.400;2022-12-11T02:50:05;18.70;;;14.17;;
68947;SDS011;55996;49.546;7.400;2022-12-11T02:52:34;20.00;;;14.10;;
68947;SDS011;55996;49.546;7.400;2022-12-11T02:55:01;18.87;;;14.33;;
68947;SDS011;55996;49.546;7.400;2022-12-11T02:57:44;20.50;;;14.37;;
68947;SDS011;55996;49.546;7.400;2022-12-11T03:00:30;19.33;;;13.73;;
68947;SDS011;55996;49.546;7.400;2022-12-11T03:02:56;19.03;;;13.50;;
68947;SDS011;55996;49.546;7.400;2022-12-11T03:05:22;20.50;;;14.10;;
68947;SDS011;55996;49.546;7.400;2022-12-11T03:07:47;18.80;;;13.97;;
68947;SDS011;55996;49.546;7.400;2022-12-11T03:10:14;20.43;;;13.80;;
68947;SDS011;55996;49.546;7.400;2022-12-11T03:12:43;19.93;;;13.90;;
68947;SDS011;55996;49.546;7.400;2022-12-11T03:15:13;20.77;;;14.47;;
68947;SDS011;55996;49.546;7.400;2022-12-11T03:23:08;20.37;;;13.53;;
68947;SDS011;55996;49.546;7.400;2022-12-11T03:25:58;22.93;;;15.53;;
68947;SDS011;55996;49.546;7.400;2022-12-11T03:31:12;21.83;;;14.57;;
68947;SDS011;55996;49.546;7.400;2022-12-11T03:33:45;23.83;;;14.97;;
68947;SDS011;55996;49.546;7.400;2022-12-11T03:36:16;21.87;;;14.60;;
68947;SDS011;55996;49.546;7.400;2022-12-11T03:38:55;23.70;;;15.57;;
68947;SDS011;55996;49.546;7.400;2022-12-11T03:41:24;24.10;;;16.03;;
68947;SDS011;55996;49.546;7.400;2022-12-11T03:43:53;20.80;;;15.13;;
68947;SDS011;55996;49.546;7.400;2022-12-11T03:46:22;22.47;;;14.83;;
68947;SDS011;55996;49.546;7.400;2022-12-11T03:48:54;23.63;;;15.90;;
68947;SDS011;55996;49.546;7.400;2022-12-11T03:51:25;25.17;;;17.07;;
68947;SDS011;55996;49.546;7.400;2022-12-11T03:53:52;24.70;;;16.17;;
68947;SDS011;55996;49.546;7.400;2022-12-11T03:56:20;21.23;;;15.47;;
68947;SDS011;55996;49.546;7.400;2022-12-11T03:58:46;26.83;;;16.63;;
68947;SDS011;55996;49.546;7.400;2022-12-11T04:01:11;23.63;;;16.13;;
68947;SDS011;55996;49.546;7.400;2022-12-11T04:03:37;28.30;;;16.67;;
68947;SDS011;55996;49.546;7.400;2022-12-11T04:06:03;23.47;;;16.30;;
68947;SDS011;55996;49.546;7.400;2022-12-11T04:08:29;24.77;;;16.97;;
68947;SDS011;55996;49.546;7.400;2022-12-11T04:10:54;30.37;;;17.57;;
68947;SDS011;55996;49.546;7.400;2022-12-11T04:13:38;28.23;;;17.37;;
68947;SDS011;55996;49.546;7.400;2022-12-11T04:16:05;30.50;;;19.07;;
68947;SDS011;55996;49.546;7.400;2022-12-11T04:18:31;28.90;;;18.70;;
68947;SDS011;55996;49.546;7.400;2022-12-11T04:21:15;28.07;;;18.90;;
68947;SDS011;55996;49.546;7.400;2022-12-11T04:23:59;29.53;;;19.07;;
68947;SDS011;55996;49.546;7.400;2022-12-11T04:26:39;32.27;;;19.30;;
68947;SDS011;55996;49.546;7.400;2022-12-11T04:29:06;27.23;;;18.07;;
68947;SDS011;55996;49.546;7.400;2022-12-11T04:31:31;30.57;;;18.63;;
68947;SDS011;55996;49.546;7.400;2022-12-11T04:33:57;28.13;;;18.00;;
68947;SDS011;55996;49.546;7.400;2022-12-11T04:36:22;29.27;;;19.67;;
68947;SDS011;55996;49.546;7.400;2022-12-11T04:38:48;33.63;;;19.40;;
68947;SDS011;55996;49.546;7.400;2022-12-11T04:41:14;28.80;;;18.77;;
68947;SDS011;55996;49.546;7.400;2022-12-11T04:43:40;31.10;;;18.63;;
68947;SDS011;55996;49.546;7.400;2022-12-11T04:48:34;32.70;;;19.30;;
68947;SDS011;55996;49.546;7.400;2022-12-11T04:51:01;30.83;;;20.00;;
68947;SDS011;55996;49.546;7.400;2022-12-11T04:53:26;31.43;;;19.07;;
68947;SDS011;55996;49.546;7.400;2022-12-11T04:55:53;32.07;;;18.90;;
68947;SDS011;55996;49.546;7.400;2022-12-11T04:58:18;32.93;;;20.37;;
68947;SDS011;55996;49.546;7.400;2022-12-11T05:00:44;31.47;;;18.97;;
68947;SDS011;55996;49.546;7.400;2022-12-11T05:03:10;33.43;;;19.47;;
68947;SDS011;55996;49.546;7.400;2022-12-11T05:05:35;31.10;;;19.00;;
68947;SDS011;55996;49.546;7.400;2022-12-11T05:08:01;31.87;;;19.57;;
68947;SDS011;55996;49.546;7.400;2022-12-11T05:10:26;30.37;;;18.57;;
68947;SDS011;55996;49.546;7.400;2022-12-11T05:12:52;34.53;;;19.27;;
68947;SDS011;55996;49.546;7.400;2022-12-11T05:15:17;34.10;;;20.30;;
68947;SDS011;55996;49.546;7.400;2022-12-11T05:17:43;32.53;;;19.67;;
68947;SDS011;55996;49.546;7.400;2022-12-11T05:20:08;31.10;;;18.63;;
68947;SDS011;55996;49.546;7.400;2022-12-11T05:22:34;32.33;;;20.00;;
68947;SDS011;55996;49.546;7.400;2022-12-11T05:25:00;31.80;;;19.87;;
68947;SDS011;55996;49.546;7.400;2022-12-11T05:27:25;32.43;;;18.47;;
68947;SDS011;55996;49.546;7.400;2022-12-11T05:29:51;31.73;;;19.40;;
68947;SDS011;55996;49.546;7.400;2022-12-11T05:32:16;33.30;;;20.60;;
68947;SDS011;55996;49.546;7.400;2022-12-11T05:34:42;30.83;;;18.97;;
68947;SDS011;55996;49.546;7.400;2022-12-11T05:37:07;34.53;;;19.43;;
68947;SDS011;55996;49.546;7.400;2022-12-11T05:39:33;36.27;;;19.97;;
68947;SDS011;55996;49.546;7.400;2022-12-11T05:41:58;36.53;;;19.90;;
68947;SDS011;55996;49.546;7.400;2022-12-11T05:44:23;37.97;;;20.43;;
68947;SDS011;55996;49.546;7.400;2022-12-11T05:46:49;35.83;;;20.53;;
68947;SDS011;55996;49.546;7.400;2022-12-11T05:49:15;41.00;;;20.80;;
68947;SDS011;55996;49.546;7.400;2022-12-11T05:51:40;34.67;;;19.70;;
68947;SDS011;55996;49.546;7.400;2022-12-11T05:54:07;34.93;;;20.20;;
68947;SDS011;55996;49.546;7.400;2022-12-11T05:56:34;37.20;;;20.40;;
68947;SDS011;55996;49.546;7.400;2022-12-11T05:59:00;37.60;;;21.17;;
68947;SDS011;55996;49.546;7.400;2022-12-11T06:01:33;40.47;;;21.70;;
68947;SDS011;55996;49.546;7.400;2022-12-11T06:04:00;43.60;;;23.17;;
68947;SDS011;55996;49.546;7.400;2022-12-11T06:06:26;41.10;;;21.73;;
68947;SDS011;55996;49.546;7.400;2022-12-11T06:08:53;37.53;;;20.43;;
68947;SDS011;55996;49.546;7.400;2022-12-11T06:11:22;42.30;;;20.87;;
68947;SDS011;55996;49.546;7.400;2022-12-11T06:13:48;38.77;;;20.37;;
68947;SDS011;55996;49.546;7.400;2022-12-11T06:16:14;41.00;;;21.33;;
68947;SDS011;55996;49.546;7.400;2022-12-11T06:18:40;46.00;;;22.03;;
68947;SDS011;55996;49.546;7.400;2022-12-11T06:21:11;40.47;;;21.20;;
68947;SDS011;55996;49.546;7.400;2022-12-11T06:23:41;40.87;;;21.23;;
68947;SDS011;55996;49.546;7.400;2022-12-11T06:26:08;35.87;;;20.40;;
68947;SDS011;55996;49.546;7.400;2022-12-11T06:28:34;40.47;;;21.33;;
68947;SDS011;55996;49.546;7.400;2022-12-11T06:31:00;36.23;;;19.93;;
68947;SDS011;55996;49.546;7.400;2022-12-11T06:33:26;38.87;;;20.70;;
68947;SDS011;55996;49.546;7.400;2022-12-11T06:35:51;36.33;;;19.53;;
68947;SDS011;55996;49.546;7.400;2022-12-11T06:38:17;33.87;;;18.73;;
68947;SDS011;55996;49.546;7.400;2022-12-11T06:40:43;36.10;;;19.50;;
68947;SDS011;55996;49.546;7.400;2022-12-11T06:43:08;38.17;;;19.87;;
68947;SDS011;55996;49.546;7.400;2022-12-11T06:45:35;42.67;;;21.03;;
68947;SDS011;55996;49.546;7.400;2022-12-11T06:48:01;35.40;;;19.60;;
68947;SDS011;55996;49.546;7.400;2022-12-11T06:50:27;35.43;;;19.83;;
68947;SDS011;55996;49.546;7.400;2022-12-11T06:52:52;35.37;;;19.00;;
68947;SDS011;55996;49.546;7.400;2022-12-11T06:55:19;37.83;;;19.23;;
68947;SDS011;55996;49.546;7.400;2022-12-11T06:57:44;36.40;;;18.73;;
68947;SDS011;55996;49.546;7.400;2022-12-11T07:00:10;33.63;;;19.03;;
68947;SDS011;55996;49.546;7.400;2022-12-11T07:02:36;36.27;;;18.90;;
68947;SDS011;55996;49.546;7.400;2022-12-11T07:05:01;34.27;;;19.40;;
68947;SDS011;55996;49.546;7.400;2022-12-11T07:07:27;37.23;;;19.87;;
68947;SDS011;55996;49.546;7.400;2022-12-11T07:09:52;38.23;;;20.50;;
68947;SDS011;55996;49.546;7.400;2022-12-11T07:12:18;41.60;;;20.73;;
68947;SDS011;55996;49.546;7.400;2022-12-11T07:14:43;38.83;;;20.33;;
68947;SDS011;55996;49.546;7.400;2022-12-11T07:17:09;37.43;;;20.00;;
68947;SDS011;55996;49.546;7.400;2022-12-11T07:19:35;37.83;;;21.40;;
68947;SDS011;55996;49.546;7.400;2022-12-11T07:22:00;36.50;;;19.70;;
68947;SDS011;55996;49.546;7.400;2022-12-11T07:24:25;35.83;;;19.23;;
68947;SDS011;55996;49.546;7.400;2022-12-11T07:26:52;38.27;;;20.40;;
68947;SDS011;55996;49.546;7.400;2022-12-11T07:29:17;39.07;;;20.10;;
68947;SDS011;55996;49.546;7.400;2022-12-11T07:31:43;40.63;;;20.87;;
68947;SDS011;55996;49.546;7.400;2022-12-11T07:34:12;41.60;;;21.30;;
68947;SDS011;55996;49.546;7.400;2022-12-11T07:36:38;41.97;;;20.47;;
68947;SDS011;55996;49.546;7.400;2022-12-11T07:39:04;40.73;;;21.43;;
68947;SDS011;55996;49.546;7.400;2022-12-11T07:41:29;39.70;;;20.23;;
68947;SDS011;55996;49.546;7.400;2022-12-11T07:43:56;39.20;;;20.97;;
68947;SDS011;55996;49.546;7.400;2022-12-11T07:46:24;39.17;;;20.80;;
68947;SDS011;55996;49.546;7.400;2022-12-11T07:48:51;41.43;;;21.73;;
68947;SDS011;55996;49.546;7.400;2022-12-11T07:53:43;41.40;;;21.17;;
68947;SDS011;55996;49.546;7.400;2022-12-11T07:56:09;37.63;;;21.27;;
68947;SDS011;55996;49.546;7.400;2022-12-11T07:58:35;36.07;;;20.43;;
68947;SDS011;55996;49.546;7.400;2022-12-11T08:01:03;36.73;;;20.97;;
68947;SDS011;55996;49.546;7.400;2022-12-11T08:03:29;35.83;;;20.07;;
68947;SDS011;55996;49.546;7.400;2022-12-11T08:05:54;39.80;;;21.07;;
68947;SDS011;55996;49.546;7.400;2022-12-11T08:08:20;34.93;;;19.60;;
68947;SDS011;55996;49.546;7.400;2022-12-11T08:10:45;38.13;;;20.23;;
68947;SDS011;55996;49.546;7.400;2022-12-11T08:13:11;31.30;;;18.90;;
68947;SDS011;55996;49.546;7.400;2022-12-11T08:15:36;31.27;;;19.30;;
68947;SDS011;55996;49.546;7.400;2022-12-11T08:18:02;34.60;;;19.17;;
68947;SDS011;55996;49.546;7.400;2022-12-11T08:20:28;35.07;;;19.67;;
68947;SDS011;55996;49.546;7.400;2022-12-11T08:22:54;36.20;;;19.33;;
68947;SDS011;55996;49.546;7.400;2022-12-11T08:25:20;35.27;;;19.97;;
68947;SDS011;55996;49.546;7.400;2022-12-11T08:27:45;35.93;;;20.80;;
68947;SDS011;55996;49.546;7.400;2022-12-11T08:30:11;34.70;;;19.43;;
68947;SDS011;55996;49.546;7.400;2022-12-11T08:32:37;31.73;;;18.03;;
68947;SDS011;55996;49.546;7.400;2022-12-11T08:35:02;33.03;;;19.50;;
68947;SDS011;55996;49.546;7.400;2022-12-11T08:37:28;33.17;;;18.30;;
68947;SDS011;55996;49.546;7.400;2022-12-11T08:39:53;33.63;;;18.70;;
68947;SDS011;55996;49.546;7.400;2022-12-11T08:42:19;34.07;;;19.07;;
68947;SDS011;55996;49.546;7.400;2022-12-11T08:44:44;30.10;;;17.80;;
68947;SDS011;55996;49.546;7.400;2022-12-11T08:47:10;30.57;;;17.93;;
68947;SDS011;55996;49.546;7.400;2022-12-11T08:49:35;32.07;;;19.13;;
68947;SDS011;55996;49.546;7.400;2022-12-11T08:52:04;31.60;;;19.80;;
68947;SDS011;55996;49.546;7.400;2022-12-11T08:54:30;36.63;;;21.70;;
68947;SDS011;55996;49.546;7.400;2022-12-11T08:56:55;37.10;;;20.93;;
68947;SDS011;55996;49.546;7.400;2022-12-11T08:59:21;34.27;;;20.07;;
68947;SDS011;55996;49.546;7.400;2022-12-11T09:01:47;35.93;;;21.23;;
68947;SDS011;55996;49.546;7.400;2022-12-11T09:04:12;30.30;;;18.97;;
68947;SDS011;55996;49.546;7.400;2022-12-11T09:06:38;33.50;;;21.33;;
68947;SDS011;55996;49.546;7.400;2022-12-11T09:09:03;34.67;;;19.07;;
68947;SDS011;55996;49.546;7.400;2022-12-11T09:11:30;29.37;;;17.87;;
68947;SDS011;55996;49.546;7.400;2022-12-11T09:13:58;33.17;;;19.43;;
68947;SDS011;55996;49.546;7.400;2022-12-11T09:16:24;31.23;;;19.27;;
68947;SDS011;55996;49.546;7.400;2022-12-11T09:18:51;27.80;;;18.30;;
68947;SDS011;55996;49.546;7.400;2022-12-11T09:21:19;27.17;;;17.37;;
68947;SDS011;55996;49.546;7.400;2022-12-11T09:23:46;28.80;;;17.33;;
68947;SDS011;55996;49.546;7.400;2022-12-11T09:26:13;28.07;;;16.97;;
68947;SDS011;55996;49.546;7.400;2022-12-11T09:28:41;25.70;;;16.93;;
68947;SDS011;55996;49.546;7.400;2022-12-11T09:31:16;26.83;;;16.43;;
68947;SDS011;55996;49.546;7.400;2022-12-11T09:33:43;26.50;;;15.90;;
68947;SDS011;55996;49.546;7.400;2022-12-11T09:36:09;25.10;;;15.47;;
68947;SDS011;55996;49.546;7.400;2022-12-11T09:38:36;27.30;;;16.40;;
68947;SDS011;55996;49.546;7.400;2022-12-11T09:41:25;27.70;;;16.27;;
68947;SDS011;55996;49.546;7.400;2022-12-11T09:46:36;28.20;;;17.97;;
68947;SDS011;55996;49.546;7.400;2022-12-11T09:49:03;27.03;;;16.77;;
68947;SDS011;55996;49.546;7.400;2022-12-11T09:51:39;25.70;;;16.07;;
68947;SDS011;55996;49.546;7.400;2022-12-11T09:54:08;29.60;;;17.83;;
68947;SDS011;55996;49.546;7.400;2022-12-11T09:56:49;26.10;;;16.23;;
68947;SDS011;55996;49.546;7.400;2022-12-11T09:59:34;25.60;;;15.67;;
68947;SDS011;55996;49.546;7.400;2022-12-11T10:02:28;26.50;;;15.80;;
68947;SDS011;55996;49.546;7.400;2022-12-11T10:07:39;23.17;;;15.20;;
68947;SDS011;55996;49.546;7.400;2022-12-11T10:18:43;27.47;;;17.00;;
68947;SDS011;55996;49.546;7.400;2022-12-11T10:21:09;26.40;;;15.97;;
68947;SDS011;55996;49.546;7.400;2022-12-11T10:23:49;23.37;;;15.33;;
68947;SDS011;55996;49.546;7.400;2022-12-11T10:26:22;25.37;;;16.13;;
68947;SDS011;55996;49.546;7.400;2022-12-11T10:28:47;26.40;;;16.80;;
68947;SDS011;55996;49.546;7.400;2022-12-11T10:31:17;25.70;;;15.93;;
68947;SDS011;55996;49.546;7.400;2022-12-11T10:36:30;22.83;;;14.53;;
68947;SDS011;55996;49.546;7.400;2022-12-11T10:38:59;26.13;;;15.33;;
68947;SDS011;55996;49.546;7.400;2022-12-11T10:44:18;21.07;;;13.27;;
68947;SDS011;55996;49.546;7.400;2022-12-11T10:46:45;23.43;;;14.37;;
68947;SDS011;55996;49.546;7.400;2022-12-11T10:49:24;22.87;;;14.83;;
68947;SDS011;55996;49.546;7.400;2022-12-11T10:51:51;22.40;;;13.73;;
68947;SDS011;55996;49.546;7.400;2022-12-11T10:54:35;21.40;;;13.83;;
68947;SDS011;55996;49.546;7.400;2022-12-11T10:57:04;21.90;;;14.20;;
68947;SDS011;55996;49.546;7.400;2022-12-11T10:59:48;22.40;;;14.37;;
68947;SDS011;55996;49.546;7.400;2022-12-11T11:02:24;22.47;;;14.47;;
68947;SDS011;55996;49.546;7.400;2022-12-11T11:04:51;22.03;;;14.50;;
68947;SDS011;55996;49.546;7.400;2022-12-11T11:07:19;19.63;;;13.63;;
68947;SDS011;55996;49.546;7.400;2022-12-11T11:09:48;21.10;;;14.20;;
68947;SDS011;55996;49.546;7.400;2022-12-11T11:12:24;22.17;;;14.27;;
68947;SDS011;55996;49.546;7.400;2022-12-11T11:14:58;20.40;;;13.57;;
68947;SDS011;55996;49.546;7.400;2022-12-11T11:17:25;19.40;;;12.93;;
68947;SDS011;55996;49.546;7.400;2022-12-11T11:19:51;19.93;;;13.33;;
68947;SDS011;55996;49.546;7.400;2022-12-11T11:22:17;21.70;;;13.70;;
68947;SDS011;55996;49.546;7.400;2022-12-11T11:30:01;19.17;;;13.83;;
68947;SDS011;55996;49.546;7.400;2022-12-11T11:32:51;21.73;;;13.90;;
68947;SDS011;55996;49.546;7.400;2022-12-11T11:35:21;19.20;;;13.03;;
68947;SDS011;55996;49.546;7.400;2022-12-11T11:37:53;21.27;;;13.53;;
68947;SDS011;55996;49.546;7.400;2022-12-11T11:40:40;21.07;;;14.27;;
68947;SDS011;55996;49.546;7.400;2022-12-11T11:48:42;19.60;;;13.77;;
68947;SDS011;55996;49.546;7.400;2022-12-11T11:51:26;20.17;;;13.07;;
68947;SDS011;55996;49.546;7.400;2022-12-11T11:53:58;17.53;;;12.73;;
68947;SDS011;55996;49.546;7.400;2022-12-11T11:56:33;18.63;;;12.00;;
68947;SDS011;55996;49.546;7.400;2022-12-11T12:01:45;19.73;;;13.33;;
68947;SDS011;55996;49.546;7.400;2022-12-11T12:04:11;19.37;;;13.80;;
68947;SDS011;55996;49.546;7.400;2022-12-11T12:20:36;23.33;;;15.70;;
68947;SDS011;55996;49.546;7.400;2022-12-11T12:25:40;23.37;;;15.67;;
68947;SDS011;55996;49.546;7.400;2022-12-11T12:28:26;26.90;;;16.80;;
68947;SDS011;55996;49.546;7.400;2022-12-11T12:36:49;20.83;;;13.23;;
68947;SDS011;55996;49.546;7.400;2022-12-11T12:44:45;21.40;;;13.03;;
68947;SDS011;55996;49.546;7.400;2022-12-11T12:47:21;20.27;;;13.33;;
68947;SDS011;55996;49.546;7.400;2022-12-11T12:49:48;20.83;;;13.07;;
68947;SDS011;55996;49.546;7.400;2022-12-11T12:52:19;21.17;;;14.27;;
68947;SDS011;55996;49.546;7.400;2022-12-11T12:54:51;23.13;;;14.17;;
68947;SDS011;55996;49.546;7.400;2022-12-11T12:57:43;21.73;;;14.43;;
68947;SDS011;55996;49.546;7.400;2022-12-11T13:00:12;20.77;;;13.97;;
68947;SDS011;55996;49.546;7.400;2022-12-11T13:02:49;20.07;;;13.93;;
68947;SDS011;55996;49.546;7.400;2022-12-11T13:05:20;20.10;;;13.63;;
68947;SDS011;55996;49.546;7.400;2022-12-11T13:07:56;22.47;;;14.87;;
68947;SDS011;55996;49.546;7.400;2022-12-11T13:12:56;20.03;;;14.27;;
68947;SDS011;55996;49.546;7.400;2022-12-11T13:18:02;22.40;;;14.17;;
68947;SDS011;55996;49.546;7.400;2022-12-11T13:20:48;21.17;;;14.43;;
68947;SDS011;55996;49.546;7.400;2022-12-11T13:23:16;18.03;;;13.10;;
68947;SDS011;55996;49.546;7.400;2022-12-11T13:25:54;20.50;;;13.27;;
68947;SDS011;55996;49.546;7.400;2022-12-11T13:28:24;19.33;;;12.10;;
68947;SDS011;55996;49.546;7.400;2022-12-11T13:30:59;20.20;;;13.07;;
68947;SDS011;55996;49.546;7.400;2022-12-11T13:33:27;19.50;;;12.73;;
68947;SDS011;55996;49.546;7.400;2022-12-11T13:36:03;21.33;;;13.97;;
68947;SDS011;55996;49.546;7.400;2022-12-11T13:38:58;20.37;;;13.23;;
68947;SDS011;55996;49.546;7.400;2022-12-11T13:41:26;20.00;;;14.07;;
68947;SDS011;55996;49.546;7.400;2022-12-11T13:43:54;21.47;;;13.77;;
68947;SDS011;55996;49.546;7.400;2022-12-11T13:46:23;19.57;;;12.43;;
68947;SDS011;55996;49.546;7.400;2022-12-11T13:48:52;20.57;;;12.83;;
68947;SDS011;55996;49.546;7.400;2022-12-11T13:51:22;20.40;;;12.43;;
68947;SDS011;55996;49.546;7.400;2022-12-11T13:54:00;17.33;;;11.77;;
68947;SDS011;55996;49.546;7.400;2022-12-11T13:59:33;21.40;;;12.50;;
68947;SDS011;55996;49.546;7.400;2022-12-11T14:02:02;20.20;;;12.20;;
68947;SDS011;55996;49.546;7.400;2022-12-11T14:04:35;17.93;;;12.17;;
68947;SDS011;55996;49.546;7.400;2022-12-11T14:07:04;19.00;;;12.43;;
68947;SDS011;55996;49.546;7.400;2022-12-11T14:09:31;19.47;;;12.57;;
68947;SDS011;55996;49.546;7.400;2022-12-11T14:11:57;18.17;;;12.03;;
68947;SDS011;55996;49.546;7.400;2022-12-11T14:14:29;18.90;;;12.57;;
68947;SDS011;55996;49.546;7.400;2022-12-11T14:17:09;29.80;;;16.87;;
68947;SDS011;55996;49.546;7.400;2022-12-11T14:19:45;21.43;;;13.10;;
68947;SDS011;55996;49.546;7.400;2022-12-11T14:22:16;22.03;;;13.33;;
68947;SDS011;55996;49.546;7.400;2022-12-11T14:24:47;19.67;;;13.33;;
68947;SDS011;55996;49.546;7.400;2022-12-11T14:27:17;16.53;;;11.67;;
68947;SDS011;55996;49.546;7.400;2022-12-11T14:29:44;19.03;;;12.90;;
68947;SDS011;55996;49.546;7.400;2022-12-11T14:32:18;20.77;;;12.97;;
68947;SDS011;55996;49.546;7.400;2022-12-11T14:35:05;18.57;;;11.80;;
68947;SDS011;55996;49.546;7.400;2022-12-11T14:37:47;23.60;;;14.70;;
68947;SDS011;55996;49.546;7.400;2022-12-11T14:40:16;19.47;;;12.50;;
68947;SDS011;55996;49.546;7.400;2022-12-11T14:42:51;20.90;;;13.47;;
68947;SDS011;55996;49.546;7.400;2022-12-11T14:48:00;20.83;;;13.30;;
68947;SDS011;55996;49.546;7.400;2022-12-11T14:53:16;25.97;;;15.50;;
68947;SDS011;55996;49.546;7.400;2022-12-11T14:55:45;24.80;;;14.80;;
68947;SDS011;55996;49.546;7.400;2022-12-11T14:58:17;22.70;;;14.47;;
68947;SDS011;55996;49.546;7.400;2022-12-11T15:01:05;21.70;;;13.83;;
68947;SDS011;55996;49.546;7.400;2022-12-11T15:03:44;19.00;;;12.63;;
68947;SDS011;55996;49.546;7.400;2022-12-11T15:09:15;20.27;;;13.87;;
68947;SDS011;55996;49.546;7.400;2022-12-11T15:12:11;20.10;;;12.70;;
68947;SDS011;55996;49.546;7.400;2022-12-11T15:14:47;22.40;;;14.03;;
68947;SDS011;55996;49.546;7.400;2022-12-11T15:17:15;20.33;;;12.30;;
68947;SDS011;55996;49.546;7.400;2022-12-11T15:19:47;19.27;;;13.60;;
68947;SDS011;55996;49.546;7.400;2022-12-11T15:22:15;21.20;;;13.57;;
68947;SDS011;55996;49.546;7.400;2022-12-11T15:24:43;22.27;;;13.53;;
68947;SDS011;55996;49.546;7.400;2022-12-11T15:27:55;20.17;;;13.20;;
68947;SDS011;55996;49.546;7.400;2022-12-11T15:32:40;21.67;;;13.40;;
68947;SDS011;55996;49.546;7.400;2022-12-11T15:35:20;21.93;;;13.20;;
68947;SDS011;55996;49.546;7.400;2022-12-11T15:37:55;18.53;;;13.10;;
68947;SDS011;55996;49.546;7.400;2022-12-11T15:40:21;19.93;;;12.93;;
68947;SDS011;55996;49.546;7.400;2022-12-11T15:42:48;21.57;;;14.20;;
68947;SDS011;55996;49.546;7.400;2022-12-11T15:45:18;21.00;;;13.33;;
68947;SDS011;55996;49.546;7.400;2022-12-11T15:47:46;17.30;;;11.90;;
68947;SDS011;55996;49.546;7.400;2022-12-11T15:50:19;18.67;;;12.63;;
68947;SDS011;55996;49.546;7.400;2022-12-11T15:52:47;20.70;;;13.53;;
68947;SDS011;55996;49.546;7.400;2022-12-11T15:55:14;21.00;;;12.97;;
68947;SDS011;55996;49.546;7.400;2022-12-11T15:57:42;20.60;;;13.50;;
68947;SDS011;55996;49.546;7.400;2022-12-11T16:00:14;25.87;;;15.23;;
68947;SDS011;55996;49.546;7.400;2022-12-11T16:02:42;23.10;;;14.63;;
68947;SDS011;55996;49.546;7.400;2022-12-11T16:05:08;23.80;;;15.00;;
68947;SDS011;55996;49.546;7.400;2022-12-11T16:07:34;21.20;;;14.33;;
68947;SDS011;55996;49.546;7.400;2022-12-11T16:09:59;22.07;;;14.53;;
68947;SDS011;55996;49.546;7.400;2022-12-11T16:12:25;27.03;;;17.20;;
68947;SDS011;55996;49.546;7.400;2022-12-11T16:14:50;29.33;;;16.80;;